ドーハ の空港の天気 - METARとTAF

ドーハ国際空港 ( OTBD / DOH ) - カタール ドーハ
飛行場実況気象(Metar)
観測時間02/26 06:00 AST (02/26 03:00 UTC)
風向・風速北北西 3m/s
視程3000m
天気現象煙霧
なし
気温18℃
湿度88%
気圧1015hPa
METAROTBD 260300Z 34005KT 3000 HZ NSC 18/16 Q1015 NOSIG
過去の天気等 Google飛行場航空写真 Wunderground天気予報

過去48時間のMETAR

飛行場予報(TAF)
発表時間: 2/26 02:15 AST (2/25 23:15 UTC)
予報対象時間: 26日3時 AST ~ 27日9時 AST
風向・風速北 4m/s
視程6,000m
なし
26日3時 AST ~ 26日8時 AST に一時的に
視程4,000m
天気現象煙霧
26日4時 AST から 確率 30% で
視程2,500m
天気現象もや
全天の4割程度の雲 雲底高度 300m
26日11時 AST ~ 26日13時 AST に徐々に
風向・風速北東 5m/s
TAF OTBD 252315Z 2600/2706 35008KT 6000 NSC
TEMPO 2600/2605 4000 HZ
PROB30 2601/2604 2500 BR SCT010
BECMG 2608/2610 05010KT